Create Tblcommutelog Verified Points Advance Search
| # | Trip ID | Id Commuter | Trip Date | Trip Num | Current Lat | Current Lng | Delta Distance | Current Time | Activity | Activity Confidence | Current Speed | |
|---|---|---|---|---|---|---|---|---|---|---|---|---|
| 73421 | 251022_700992_16654347_1622 | 700992 | (not set) | (not set) | 39.021256097893 | -77.105249255158 | 10.0954 | 2025-10-22 17:35:26 | in_vehicle | 100 | 7.7069568249484 | |
| 73422 | 251022_776618_16644147_1714 | 776618 | (not set) | (not set) | 38.887331033267 | -77.162615250246 | 4.194 | 2025-10-22 17:35:27 | in_vehicle | 100 | 2.3961304281742 | |
| 73423 | 251022_108110_1016219_1700 | 108110 | (not set) | (not set) | 39.027444905831 | -77.10012498085 | 11.64 | 2025-10-22 17:35:27 | on_foot | 100 | 0.71973320697024 | |
| 73424 | 251022_772683_16639975_1727 | 772683 | (not set) | (not set) | 38.9825506 | -76.9658554 | 1.2802 | 2025-10-22 17:35:27 | on_bicycle | 100 | -0.44703925898772 | |
| 73425 | 251022_772683_16639975_1727 | 772683 | (not set) | (not set) | 38.9825506 | -76.9658554 | 1.2802 | 2025-10-22 17:35:27 | on_bicycle | 100 | -0.44703925898772 | |
| 73426 | 251022_731669_16595792_1648 | 731669 | (not set) | (not set) | 38.805411788663 | -77.063854749112 | 7.9712 | 2025-10-22 17:35:27 | in_vehicle | 100 | 0 | |
| 73427 | 251022_781236_16648911_1721 | 781236 | (not set) | (not set) | 38.961023681062 | -77.074516162356 | 2.6968 | 2025-10-22 17:35:29 | unknown | 100 | 4.1574651085858 | |
| 73428 | 251022_766077_16632982_1639 | 766077 | (not set) | (not set) | 38.80136107687 | -77.220960706807 | 14.4475 | 2025-10-22 17:35:29 | in_vehicle | 100 | 5.8875070408683 | |
| 73429 | 251022_766077_16632982_1639 | 766077 | (not set) | (not set) | 38.80136107687 | -77.220960706807 | 14.4475 | 2025-10-22 17:35:29 | in_vehicle | 100 | 5.8875070408683 | |
| 73430 | 251022_766077_16632982_1639 | 766077 | (not set) | (not set) | 38.80136107687 | -77.220960706807 | 14.4475 | 2025-10-22 17:35:29 | in_vehicle | 100 | 5.8875070408683 | |
| 73431 | 251022_787150_16655587_1656 | 787150 | (not set) | (not set) | 39.240939416135 | -76.587288192003 | 23.735 | 2025-10-22 17:35:29 | in_vehicle | 100 | 3.7730113458564 | |
| 73432 | 251022_784252_16656535_1657 | 784252 | (not set) | (not set) | 39.357306988816 | -77.139587218081 | 27.7561 | 2025-10-22 17:35:30 | in_vehicle | 100 | 16.196232353125 | |
| 73433 | 251022_775216_16642671_1709 | 775216 | (not set) | (not set) | 39.004357558886 | -76.891538657606 | 4.5534 | 2025-10-22 17:35:30 | in_vehicle | 100 | 2.0206174506245 | |
| 73434 | 251022_780809_16658575_1709 | 780809 | (not set) | (not set) | 38.923308889495 | -77.235856156968 | 12.3233 | 2025-10-22 17:35:30 | in_vehicle | 100 | 7.0855722549554 | |
| 73435 | 251022_785264_16653381_1702 | 785264 | (not set) | (not set) | 38.886262105483 | -77.157145582332 | 6.5338 | 2025-10-22 17:35:29 | still | 33 | -0.44703925898772 | |
| 73436 | 251022_780805_16656446_1733 | 780805 | (not set) | (not set) | 38.898050447226 | -77.028054738648 | 0.3678 | 2025-10-22 17:35:31 | on_foot | 100 | -0.44703925898772 | |
| 73437 | 251022_786801_16655180_1733 | 786801 | (not set) | (not set) | 38.869572472572 | -77.05399509407 | 0 | 2025-10-22 17:35:31 | running | 100 | -0.44703925898772 | |
| 73438 | 251022_786801_16655180_1733 | 786801 | (not set) | (not set) | 38.869572472572 | -77.05399509407 | 0 | 2025-10-22 17:35:31 | running | 100 | -0.44703925898772 | |
| 73439 | 251022_780758_16648435_1714 | 780758 | (not set) | (not set) | 38.882859549593 | -77.103347771386 | 3.5667 | 2025-10-22 17:35:32 | in_vehicle | 100 | -0.44703925898772 | |
| 73440 | 251022_780758_16648435_1714 | 780758 | (not set) | (not set) | 38.882859549593 | -77.103347771386 | 3.5667 | 2025-10-22 17:35:32 | in_vehicle | 100 | -0.44703925898772 |